createdAt,value
2018-08-20T00:01:24.348Z,21.82
2018-08-20T00:02:24.346Z,21.81
2018-08-20T00:04:17.277Z,21.83
2018-08-20T00:05:17.292Z,21.75
2018-08-20T00:07:10.243Z,21.81
2018-08-20T00:08:10.246Z,21.78
2018-08-20T00:10:03.191Z,21.76
2018-08-20T00:11:03.187Z,21.75
2018-08-20T00:12:56.111Z,21.81
2018-08-20T00:13:56.135Z,21.81
2018-08-20T00:15:49.085Z,21.85
2018-08-20T00:16:49.075Z,21.78
2018-08-20T00:18:42.011Z,21.81
2018-08-20T00:19:42.029Z,21.76
2018-08-20T00:21:34.979Z,21.74
2018-08-20T00:22:34.974Z,21.82
2018-08-20T00:24:27.913Z,21.76
2018-08-20T00:25:27.931Z,21.76
2018-08-20T00:27:20.879Z,21.76
2018-08-20T00:28:20.878Z,21.83
2018-08-20T00:30:13.830Z,21.82
2018-08-20T00:31:13.827Z,21.78
2018-08-20T00:33:06.751Z,21.76
2018-08-20T00:34:06.771Z,21.76
2018-08-20T00:35:59.732Z,21.81
2018-08-20T00:36:59.730Z,21.79
2018-08-20T00:38:52.665Z,21.75
2018-08-20T00:39:52.674Z,21.75
2018-08-20T00:41:45.629Z,21.69
2018-08-20T00:42:45.631Z,21.69
2018-08-20T00:44:38.555Z,21.61
2018-08-20T00:45:38.574Z,21.57
2018-08-20T00:47:31.518Z,21.69
2018-08-20T00:48:31.516Z,21.57
2018-08-20T00:50:24.470Z,21.54
2018-08-20T00:51:24.468Z,21.61
2018-08-20T00:53:17.400Z,21.60
2018-08-20T00:54:17.413Z,21.48
2018-08-20T00:56:10.374Z,21.51
2018-08-20T00:57:10.362Z,21.57
2018-08-20T00:59:03.298Z,21.46
2018-08-20T01:00:03.315Z,21.53
2018-08-20T01:01:56.266Z,21.56
2018-08-20T01:02:56.261Z,21.48
2018-08-20T01:04:49.195Z,21.46
2018-08-20T01:05:49.213Z,21.53
2018-08-20T01:07:42.158Z,21.51
2018-08-20T01:08:42.160Z,21.53
2018-08-20T01:10:35.112Z,21.44
2018-08-20T01:11:35.113Z,21.39
2018-08-20T01:13:28.440Z,21.35
2018-08-20T01:14:28.267Z,21.29
2018-08-20T01:16:21.007Z,21.34
2018-08-20T01:17:20.998Z,21.21
2018-08-20T01:19:13.930Z,21.21
2018-08-20T01:20:13.946Z,21.21
2018-08-20T01:22:06.895Z,21.19
2018-08-20T01:23:06.890Z,21.17
2018-08-20T01:24:59.817Z,21.06
2018-08-20T01:25:59.840Z,21.06
2018-08-20T01:27:52.787Z,21.11
2018-08-20T01:28:52.777Z,21.09
2018-08-20T01:30:45.733Z,21.11
2018-08-20T01:31:45.730Z,21.08
2018-08-20T01:33:38.656Z,21.09
2018-08-20T01:34:38.674Z,20.96
2018-08-20T01:36:31.627Z,20.89
2018-08-20T01:37:31.636Z,20.79
2018-08-20T01:39:24.558Z,20.80
2018-08-20T01:40:24.574Z,20.77
2018-08-20T01:42:17.536Z,20.76
2018-08-20T01:43:17.529Z,20.77
2018-08-20T01:45:10.476Z,20.68
2018-08-20T01:46:10.484Z,20.65
2018-08-20T01:48:03.434Z,20.64
2018-08-20T01:49:03.424Z,20.71
2018-08-20T01:50:56.377Z,20.66
2018-08-20T01:51:56.372Z,20.74
2018-08-20T01:53:49.300Z,20.65
2018-08-20T01:54:49.317Z,20.64
2018-08-20T02:24:27.338Z,19.98
2018-08-20T02:25:27.320Z,20.05
2018-08-20T02:27:20.256Z,19.98
2018-08-20T02:28:20.251Z,20.06
2018-08-20T02:30:13.172Z,20.03
2018-08-20T02:31:13.182Z,20.08
2018-08-20T02:33:06.135Z,20.13
2018-08-20T02:34:06.130Z,20.16
2018-08-20T02:35:59.074Z,20.21
2018-08-20T02:36:59.068Z,20.13
2018-08-20T02:38:52.000Z,20.13
2018-08-20T02:39:52.017Z,20.13
2018-08-20T02:41:44.968Z,20.23
2018-08-20T02:42:44.955Z,20.23
2018-08-20T02:44:37.876Z,20.18
2018-08-20T02:45:37.895Z,20.18
2018-08-20T02:47:30.843Z,20.08
2018-08-20T02:48:30.839Z,20.10
2018-08-20T02:50:23.760Z,20.13
2018-08-20T02:51:23.773Z,20.12
2018-08-20T02:53:16.721Z,20.15
2018-08-20T02:54:16.720Z,20.16
2018-08-20T02:56:09.667Z,20.25
2018-08-20T02:57:09.658Z,20.10
2018-08-20T02:59:02.591Z,20.23
2018-08-20T03:00:02.605Z,20.15
2018-08-20T03:01:55.553Z,20.20
2018-08-20T03:02:55.547Z,20.21
2018-08-20T03:04:48.481Z,20.25
2018-08-20T03:05:48.488Z,20.27
2018-08-20T03:07:41.440Z,20.20
2018-08-20T03:08:41.438Z,20.33
2018-08-20T03:10:34.373Z,20.20
2018-08-20T03:11:34.386Z,20.24
2018-08-20T03:13:27.333Z,20.30
2018-08-20T03:14:27.351Z,20.31
2018-08-20T03:16:20.315Z,20.35
2018-08-20T03:17:20.297Z,20.30
2018-08-20T03:19:13.204Z,20.28
2018-08-20T03:20:13.227Z,20.28
2018-08-20T03:22:06.171Z,20.28
2018-08-20T03:23:06.163Z,20.23
2018-08-20T03:24:59.094Z,20.31
2018-08-20T03:25:59.110Z,20.18
2018-08-20T03:27:52.057Z,20.28
2018-08-20T03:28:52.055Z,20.21
2018-08-20T03:30:44.991Z,20.27
2018-08-20T03:31:45.009Z,20.24
2018-08-20T03:33:37.964Z,20.24
2018-08-20T03:34:37.956Z,20.25
2018-08-20T03:36:30.903Z,20.24
2018-08-20T03:37:30.911Z,20.23
2018-08-20T03:39:23.832Z,20.30
2018-08-20T03:40:23.845Z,20.35
2018-08-20T03:42:16.799Z,20.24
2018-08-20T03:43:16.796Z,20.27
2018-08-20T03:45:09.727Z,20.28
2018-08-20T03:46:09.759Z,20.30
2018-08-20T03:48:02.691Z,20.34
2018-08-20T03:49:02.686Z,20.34
2018-08-20T03:50:55.612Z,20.28
2018-08-20T03:51:55.627Z,20.35
2018-08-20T03:53:48.577Z,20.42
2018-08-20T03:54:48.574Z,20.43
2018-08-20T03:56:41.535Z,20.31
2018-08-20T03:57:41.532Z,20.28
2018-08-20T03:59:34.457Z,20.38
2018-08-20T04:00:34.475Z,20.35
2018-08-20T04:02:27.443Z,20.31
2018-08-20T04:03:27.439Z,20.39
2018-08-20T04:05:20.370Z,20.30
2018-08-20T04:06:20.382Z,20.16
2018-08-20T04:08:13.329Z,20.27
2018-08-20T04:09:13.322Z,20.28
2018-08-20T04:11:06.265Z,20.30
2018-08-20T04:12:06.281Z,20.27
2018-08-20T04:13:59.229Z,20.24
2018-08-20T04:14:59.225Z,20.34
2018-08-20T04:16:52.170Z,20.46
2018-08-20T04:17:52.167Z,20.47
2018-08-20T04:19:45.106Z,20.51
2018-08-20T04:20:45.122Z,20.43
2018-08-20T04:22:38.069Z,20.50
2018-08-20T04:23:38.069Z,20.53
2018-08-20T04:25:30.995Z,20.49
2018-08-20T04:26:31.013Z,20.56
2018-08-20T04:28:23.961Z,20.53
2018-08-20T04:29:23.955Z,20.56
2018-08-20T04:31:16.892Z,20.59
2018-08-20T04:32:16.907Z,20.62
2018-08-20T04:34:09.865Z,20.51
2018-08-20T04:35:09.856Z,20.58
2018-08-20T04:37:02.820Z,20.61
2018-08-20T04:38:02.797Z,20.61
2018-08-20T04:39:55.730Z,20.56
2018-08-20T04:40:55.750Z,20.58
2018-08-20T04:42:48.691Z,20.62
2018-08-20T04:43:48.692Z,20.59
2018-08-20T04:45:41.623Z,20.61
2018-08-20T04:46:41.635Z,20.62
2018-08-20T04:48:34.589Z,20.53
2018-08-20T04:49:34.586Z,20.58
2018-08-20T04:51:27.698Z,20.58
2018-08-20T04:52:27.542Z,20.61
2018-08-20T04:54:20.496Z,20.61
2018-08-20T04:55:20.496Z,20.53
2018-08-20T04:57:13.443Z,20.58
2018-08-20T04:58:13.443Z,20.54
2018-08-20T05:00:06.376Z,20.54
2018-08-20T05:01:06.386Z,20.62
2018-08-20T05:02:59.334Z,20.51
2018-08-20T05:03:59.374Z,20.50
2018-08-20T05:05:52.259Z,20.47
2018-08-20T05:06:52.277Z,20.47
2018-08-20T05:08:45.233Z,20.38
2018-08-20T05:09:45.230Z,20.49
2018-08-20T05:11:38.154Z,20.43
2018-08-20T05:12:38.167Z,20.54
2018-08-20T05:14:31.124Z,20.42
2018-08-20T05:15:31.120Z,20.56
2018-08-20T05:17:24.070Z,20.51
2018-08-20T05:18:24.060Z,20.54
2018-08-20T05:20:16.992Z,20.62
2018-08-20T05:21:17.005Z,20.56
2018-08-20T05:23:09.956Z,20.56
2018-08-20T05:24:09.958Z,20.64
2018-08-20T05:26:02.898Z,20.58
2018-08-20T05:27:02.914Z,20.68
2018-08-20T05:28:55.867Z,20.64
2018-08-20T05:29:55.867Z,20.59
2018-08-20T05:31:48.796Z,20.59
2018-08-20T05:32:48.818Z,20.69
2018-08-20T05:34:41.762Z,20.62
2018-08-20T05:35:41.761Z,20.68
2018-08-20T05:37:34.707Z,20.66
2018-08-20T05:38:34.704Z,20.65
2018-08-20T05:40:27.639Z,20.68
2018-08-20T05:41:27.686Z,20.72
2018-08-20T05:43:20.606Z,20.79
2018-08-20T05:44:20.603Z,20.66
2018-08-20T05:46:13.528Z,20.65
2018-08-20T05:47:13.545Z,20.65
2018-08-20T05:49:06.494Z,20.76
2018-08-20T05:50:06.493Z,20.65
2018-08-20T05:51:59.421Z,20.69
2018-08-20T05:52:59.439Z,20.68
2018-08-20T05:54:52.384Z,20.79
2018-08-20T05:55:52.390Z,20.69
2018-08-20T05:57:45.334Z,20.71
2018-08-20T05:58:45.340Z,20.77
2018-08-20T06:00:38.264Z,20.79
2018-08-20T06:01:38.279Z,20.72
2018-08-20T06:03:31.238Z,20.80
2018-08-20T06:04:31.229Z,20.87
2018-08-20T06:06:24.156Z,20.80
2018-08-20T06:07:24.175Z,20.89
2018-08-20T06:09:17.132Z,20.83
2018-08-20T06:10:17.125Z,20.84
2018-08-20T06:12:10.057Z,20.86
2018-08-20T06:13:10.077Z,20.80
2018-08-20T06:15:03.042Z,20.90
2018-08-20T06:16:03.029Z,20.86
2018-08-20T06:17:55.994Z,20.95
2018-08-20T06:18:56.002Z,20.93
2018-08-20T06:20:48.904Z,20.96
2018-08-20T06:21:48.922Z,21.01
2018-08-20T06:23:41.871Z,20.95
2018-08-20T06:24:41.867Z,20.93
2018-08-20T06:26:34.799Z,21.02
2018-08-20T06:27:34.818Z,21.13
2018-08-20T06:29:27.764Z,21.02
2018-08-20T06:30:27.755Z,21.11
2018-08-20T06:32:20.689Z,21.17
2018-08-20T06:33:20.706Z,21.11
2018-08-20T06:35:13.659Z,21.05
2018-08-20T06:36:13.656Z,21.09
2018-08-20T06:38:06.609Z,21.14
2018-08-20T06:39:06.597Z,21.13
2018-08-20T06:40:59.545Z,21.19
2018-08-20T06:41:59.565Z,21.17
2018-08-20T06:43:52.512Z,21.24
2018-08-20T06:44:52.506Z,21.21
2018-08-20T06:46:45.447Z,21.19
2018-08-20T06:47:45.453Z,21.17
2018-08-20T06:49:38.403Z,21.08
2018-08-20T06:50:38.400Z,21.04
2018-08-20T06:52:31.338Z,21.09
2018-08-20T06:53:31.355Z,21.09
2018-08-20T06:55:24.304Z,21.08
2018-08-20T06:56:24.298Z,21.08
2018-08-20T06:58:17.260Z,21.05
2018-08-20T06:59:17.245Z,21.13
2018-08-20T07:01:10.187Z,21.16
2018-08-20T07:02:10.195Z,21.06
2018-08-20T07:04:03.149Z,21.08
2018-08-20T07:05:03.145Z,21.02
2018-08-20T07:06:56.076Z,21.17
2018-08-20T07:07:56.086Z,21.20
2018-08-20T07:09:49.039Z,21.11
2018-08-20T07:10:49.035Z,21.06
2018-08-20T07:12:41.970Z,21.13
2018-08-20T07:13:41.996Z,21.11
2018-08-20T07:15:34.932Z,21.05
2018-08-20T07:16:34.925Z,21.13
2018-08-20T07:18:27.862Z,21.14
2018-08-20T07:19:27.879Z,21.17
2018-08-20T07:21:20.828Z,21.14
2018-08-20T07:22:20.818Z,21.21
2018-08-20T07:24:13.773Z,21.20
2018-08-20T07:25:13.773Z,21.14
2018-08-20T07:27:06.706Z,21.24
2018-08-20T07:28:06.714Z,21.17
2018-08-20T07:29:59.671Z,21.20
2018-08-20T07:30:59.665Z,21.27
2018-08-20T07:32:52.661Z,21.38
2018-08-20T07:33:52.611Z,21.39
2018-08-20T07:35:45.561Z,21.30
2018-08-20T07:36:45.562Z,21.34
2018-08-20T07:38:38.524Z,21.38
2018-08-20T07:39:38.509Z,21.34
2018-08-20T07:41:31.438Z,21.46
2018-08-20T07:42:31.498Z,21.53
2018-08-20T07:44:24.406Z,21.59
2018-08-20T07:45:24.403Z,21.54
2018-08-20T07:47:17.327Z,21.64
2018-08-20T07:48:17.346Z,21.56
2018-08-20T07:50:10.295Z,21.60
2018-08-20T07:51:10.302Z,21.53
2018-08-20T07:53:03.225Z,21.41
2018-08-20T07:54:03.241Z,21.41
2018-08-20T07:55:56.195Z,21.51
2018-08-20T07:56:56.188Z,21.45
2018-08-20T07:58:49.134Z,21.53
2018-08-20T07:59:49.147Z,21.44
2018-08-20T08:01:42.107Z,21.54
2018-08-20T08:02:42.125Z,21.54
2018-08-20T08:04:35.051Z,21.67
2018-08-20T08:05:35.046Z,21.63
2018-08-20T08:07:27.977Z,21.66
2018-08-20T08:08:27.999Z,21.64
2018-08-20T08:10:20.942Z,21.54
2018-08-20T08:11:20.937Z,21.57
2018-08-20T08:13:13.873Z,21.54
2018-08-20T08:14:13.988Z,21.60
2018-08-20T08:16:06.834Z,21.60
2018-08-20T08:17:06.831Z,21.51
2018-08-20T08:18:59.757Z,21.59
2018-08-20T08:19:59.775Z,21.56
2018-08-20T08:21:52.735Z,21.48
2018-08-20T08:22:52.726Z,21.54
2018-08-20T08:24:45.675Z,21.42
2018-08-20T08:25:45.671Z,21.53
2018-08-20T08:27:38.609Z,21.53
2018-08-20T08:28:38.626Z,21.53
2018-08-20T08:30:31.593Z,21.54
2018-08-20T08:31:31.582Z,21.71
2018-08-20T08:33:24.518Z,21.64
2018-08-20T08:34:24.528Z,21.61
2018-08-20T08:36:17.500Z,21.69
2018-08-20T08:37:17.496Z,21.60
2018-08-20T08:39:10.435Z,21.71
2018-08-20T08:40:10.451Z,21.66
2018-08-20T08:42:03.402Z,21.81
2018-08-20T08:43:03.395Z,21.82
2018-08-20T08:44:56.350Z,21.83
2018-08-20T08:45:56.350Z,21.90
2018-08-20T08:47:49.287Z,21.83
2018-08-20T08:48:49.304Z,21.99
2018-08-20T08:50:42.269Z,22.17
2018-08-20T08:51:42.260Z,22.20
2018-08-20T08:53:35.187Z,22.34
2018-08-20T08:54:35.211Z,22.25
2018-08-20T08:56:28.169Z,22.41
2018-08-20T08:57:28.159Z,22.44
2018-08-20T08:59:21.093Z,22.54
2018-08-20T09:00:21.111Z,22.60
2018-08-20T09:02:14.057Z,22.65
2018-08-20T09:03:14.056Z,22.68
2018-08-20T09:05:07.010Z,22.67
2018-08-20T09:06:07.003Z,22.65
2018-08-20T09:07:59.937Z,22.64
2018-08-20T09:08:59.961Z,22.67
2018-08-20T09:10:52.904Z,22.65
2018-08-20T09:11:52.899Z,22.65
2018-08-20T09:13:45.918Z,22.50
2018-08-20T09:14:45.851Z,22.56
2018-08-20T09:16:38.803Z,22.57
2018-08-20T09:17:38.804Z,22.62
2018-08-20T09:19:31.739Z,22.57
2018-08-20T09:20:31.754Z,22.53
2018-08-20T09:22:24.709Z,22.68
2018-08-20T09:23:24.705Z,22.65
2018-08-20T09:25:17.661Z,22.72
2018-08-20T09:26:17.654Z,22.78
2018-08-20T09:28:10.590Z,22.80
2018-08-20T09:29:10.608Z,22.86
2018-08-20T09:31:03.561Z,23.02
2018-08-20T09:32:03.555Z,22.96
2018-08-20T09:33:56.489Z,22.97
2018-08-20T09:34:56.502Z,22.96
2018-08-20T09:36:49.458Z,22.97
2018-08-20T09:37:49.459Z,22.99
2018-08-20T09:39:42.401Z,22.83
2018-08-20T09:40:42.414Z,22.84
2018-08-20T09:42:35.370Z,22.92
2018-08-20T09:43:35.370Z,22.84
2018-08-20T09:45:28.324Z,22.93
2018-08-20T09:46:28.320Z,23.05
2018-08-20T09:48:21.265Z,23.24
2018-08-20T09:49:21.278Z,23.27
2018-08-20T09:51:14.238Z,23.45
2018-08-20T09:52:14.235Z,23.47
2018-08-20T09:54:07.164Z,23.60
2018-08-20T09:55:07.180Z,23.68
2018-08-20T09:57:00.141Z,23.65
2018-08-20T09:58:00.135Z,23.62
2018-08-20T09:59:53.067Z,23.79
2018-08-20T10:00:53.086Z,23.87
2018-08-20T10:02:46.037Z,24.02
2018-08-20T10:03:46.034Z,24.13
2018-08-20T10:05:38.987Z,24.32
2018-08-20T10:06:38.987Z,24.45
2018-08-20T10:08:31.920Z,24.67
2018-08-20T10:09:31.978Z,24.75
2018-08-20T10:11:24.901Z,24.85
2018-08-20T10:12:24.887Z,24.95
2018-08-20T10:14:17.832Z,24.88
2018-08-20T10:15:17.839Z,24.88
2018-08-20T10:17:10.795Z,25.01
2018-08-20T10:18:10.800Z,25.13
2018-08-20T10:20:03.731Z,25.30
2018-08-20T10:21:03.751Z,25.32
2018-08-20T10:22:56.703Z,25.31
2018-08-20T10:23:56.706Z,25.38
2018-08-20T10:25:49.668Z,25.44
2018-08-20T10:26:49.665Z,25.50
2018-08-20T10:28:42.598Z,25.65
2018-08-20T10:29:42.616Z,25.71
2018-08-20T10:31:35.578Z,25.84
2018-08-20T10:32:35.571Z,25.90
2018-08-20T10:34:28.518Z,26.01
2018-08-20T10:35:28.537Z,26.11
2018-08-20T10:37:21.497Z,26.29
2018-08-20T10:38:21.505Z,26.37
2018-08-20T10:40:14.430Z,26.57
2018-08-20T10:41:14.445Z,26.72
2018-08-20T10:43:07.408Z,26.73
2018-08-20T10:44:07.401Z,26.81
2018-08-20T10:46:00.366Z,26.77
2018-08-20T10:47:00.360Z,26.76
2018-08-20T10:48:53.302Z,26.76
2018-08-20T10:49:53.323Z,26.83
2018-08-20T10:51:46.279Z,26.59
2018-08-20T10:52:46.276Z,26.59
2018-08-20T10:54:39.222Z,26.40
2018-08-20T10:55:39.234Z,26.27
2018-08-20T10:57:32.192Z,25.98
2018-08-20T10:58:32.186Z,26.01
2018-08-20T11:00:25.126Z,26.08
2018-08-20T11:01:25.140Z,26.25
2018-08-20T11:03:18.253Z,26.43
2018-08-20T11:04:18.100Z,26.47
2018-08-20T11:06:11.060Z,26.61
2018-08-20T11:07:11.059Z,26.59
2018-08-20T11:09:03.997Z,26.76
2018-08-20T11:10:04.022Z,26.80
2018-08-20T11:11:56.987Z,26.80
2018-08-20T11:12:56.969Z,26.84
2018-08-20T11:14:49.910Z,26.87
2018-08-20T11:15:49.929Z,26.98
2018-08-20T11:17:42.888Z,27.10
2018-08-20T11:18:42.916Z,27.13
2018-08-20T11:20:35.826Z,27.19
2018-08-20T11:21:35.851Z,27.21
2018-08-20T11:23:28.805Z,27.20
2018-08-20T11:24:28.806Z,27.31
2018-08-20T11:26:21.771Z,27.42
2018-08-20T11:27:21.762Z,27.48
2018-08-20T11:29:14.696Z,27.54
2018-08-20T11:30:14.738Z,27.46
2018-08-20T11:32:07.677Z,27.41
2018-08-20T11:33:07.673Z,27.35
2018-08-20T11:35:00.610Z,27.46
2018-08-20T11:36:00.655Z,27.46
2018-08-20T11:37:53.594Z,27.66
2018-08-20T11:38:53.595Z,27.61
2018-08-20T11:40:46.527Z,27.57
2018-08-20T11:41:46.550Z,27.58
2018-08-20T11:43:39.508Z,27.62
2018-08-20T11:44:39.508Z,27.42
2018-08-20T11:46:32.468Z,27.41
2018-08-20T11:47:32.463Z,27.28
2018-08-20T11:49:25.408Z,27.19
2018-08-20T11:50:25.421Z,27.17
2018-08-20T11:52:18.387Z,27.16
2018-08-20T11:53:18.395Z,27.16
2018-08-20T11:55:11.323Z,27.13
2018-08-20T11:56:11.343Z,27.19
2018-08-20T11:58:04.303Z,27.06
2018-08-20T11:59:04.310Z,27.01
2018-08-20T12:00:57.237Z,26.86
2018-08-20T12:01:57.338Z,26.86
2018-08-20T12:03:50.224Z,26.58
2018-08-20T12:04:50.213Z,26.44
2018-08-20T12:06:43.179Z,26.40
2018-08-20T12:07:43.209Z,26.46
2018-08-20T12:09:36.114Z,26.24
2018-08-20T12:10:36.131Z,26.28
2018-08-20T12:12:29.092Z,26.28
2018-08-20T12:13:29.096Z,26.24
2018-08-20T12:15:22.036Z,26.06
2018-08-20T12:16:22.054Z,26.05
2018-08-20T12:18:15.011Z,25.93
2018-08-20T12:19:15.009Z,25.79
2018-08-20T12:21:07.947Z,25.62
2018-08-20T12:22:07.966Z,25.56
2018-08-20T12:24:00.928Z,25.43
2018-08-20T12:25:00.929Z,25.42
2018-08-20T12:26:53.884Z,25.28
2018-08-20T12:27:53.885Z,25.31
2018-08-20T12:29:46.819Z,25.22
2018-08-20T12:30:46.848Z,25.20
2018-08-20T12:32:39.794Z,25.24
2018-08-20T12:33:39.794Z,25.09
2018-08-20T12:35:32.739Z,25.27
2018-08-20T12:36:32.753Z,25.27
2018-08-20T12:38:25.712Z,25.67
2018-08-20T12:39:25.715Z,25.61
2018-08-20T12:41:18.646Z,25.69
2018-08-20T12:42:18.665Z,25.80
2018-08-20T12:44:11.624Z,25.90
2018-08-20T12:45:11.618Z,25.97
2018-08-20T12:47:04.576Z,25.97
2018-08-20T12:48:04.582Z,25.99
2018-08-20T12:49:57.511Z,25.80
2018-08-20T12:50:57.531Z,25.64
2018-08-20T12:52:50.491Z,25.37
2018-08-20T12:53:50.486Z,25.39
2018-08-20T12:55:43.428Z,25.15
2018-08-20T12:56:43.444Z,25.13
2018-08-20T12:58:36.400Z,25.00
2018-08-20T12:59:36.397Z,25.07
2018-08-20T13:01:29.340Z,24.85
2018-08-20T13:02:29.353Z,24.76
2018-08-20T13:04:22.314Z,24.57
2018-08-20T13:05:22.311Z,24.54
2018-08-20T13:07:15.265Z,24.17
2018-08-20T13:08:15.267Z,24.05
2018-08-20T13:10:08.197Z,24.00
2018-08-20T13:11:08.226Z,23.90
2018-08-20T13:13:01.164Z,23.80
2018-08-20T13:14:01.161Z,23.70
2018-08-20T13:15:54.172Z,23.61
2018-08-20T13:16:54.115Z,23.60
2018-08-20T13:18:47.084Z,23.60
2018-08-20T13:19:47.070Z,23.53
2018-08-20T13:21:40.006Z,23.49
2018-08-20T13:22:40.023Z,23.47
2018-08-20T13:24:32.980Z,23.38
2018-08-20T13:25:32.975Z,23.40
2018-08-20T13:27:25.964Z,23.47
2018-08-20T13:28:25.951Z,23.40
2018-08-20T13:30:18.880Z,23.62
2018-08-20T13:31:18.899Z,23.58
2018-08-20T13:33:11.946Z,23.79
2018-08-20T13:34:11.913Z,23.86
2018-08-20T13:36:04.784Z,24.10
2018-08-20T13:37:04.800Z,24.08
2018-08-20T13:38:57.767Z,24.19
2018-08-20T13:39:57.749Z,24.31
2018-08-20T13:41:50.737Z,24.56
2018-08-20T13:42:50.734Z,24.64
2018-08-20T13:44:43.753Z,24.79
2018-08-20T13:45:43.769Z,24.80
2018-08-20T13:47:36.737Z,24.94
2018-08-20T13:48:36.717Z,25.02
2018-08-20T13:50:29.655Z,25.02
2018-08-20T13:51:29.670Z,25.09
2018-08-20T13:53:22.633Z,25.09
2018-08-20T13:54:22.655Z,25.22
2018-08-20T13:56:15.565Z,25.32
2018-08-20T13:57:15.583Z,25.31
2018-08-20T13:59:08.536Z,25.32
2018-08-20T14:00:08.538Z,25.50
2018-08-20T14:02:01.473Z,25.39
2018-08-20T14:03:01.486Z,25.37
2018-08-20T14:04:54.443Z,25.50
2018-08-20T14:05:54.443Z,25.62
2018-08-20T14:07:47.402Z,25.62
2018-08-20T14:08:47.399Z,25.59
2018-08-20T14:10:40.338Z,25.49
2018-08-20T14:11:40.354Z,25.59
2018-08-20T14:13:33.310Z,25.65
2018-08-20T14:14:33.307Z,25.64
2018-08-20T14:16:26.243Z,25.69
2018-08-20T14:17:26.262Z,25.61
2018-08-20T14:19:19.216Z,25.59
2018-08-20T14:20:19.216Z,25.64
2018-08-20T14:22:12.156Z,25.52
2018-08-20T14:23:12.178Z,25.52
2018-08-20T14:25:05.154Z,25.47
2018-08-20T14:26:05.130Z,25.52
2018-08-20T14:27:59.087Z,25.52
2018-08-20T14:28:59.085Z,25.54
2018-08-20T14:30:52.050Z,25.50
2018-08-20T14:31:52.049Z,25.42
2018-08-20T14:33:45.002Z,25.35
2018-08-20T14:34:44.995Z,25.25
2018-08-20T14:36:38.012Z,25.19
2018-08-20T14:37:37.952Z,25.10
2018-08-20T14:39:30.913Z,24.98
2018-08-20T14:40:30.900Z,25.02
2018-08-20T14:42:23.846Z,24.90
2018-08-20T14:43:23.859Z,24.92
2018-08-20T14:45:16.821Z,24.80
2018-08-20T14:46:16.817Z,24.77
2018-08-20T14:48:09.766Z,24.63
2018-08-20T14:49:09.765Z,24.56
2018-08-20T14:51:03.226Z,24.59
2018-08-20T14:52:03.212Z,24.50
2018-08-20T14:53:56.171Z,24.49
2018-08-20T14:54:56.167Z,24.44
2018-08-20T14:56:49.108Z,24.35
2018-08-20T14:57:49.121Z,24.45
2018-08-20T14:59:42.075Z,24.42
2018-08-20T15:00:42.074Z,24.41
2018-08-20T15:02:35.099Z,24.45
2018-08-20T15:03:35.034Z,24.39
2018-08-20T15:05:27.992Z,24.41
2018-08-20T15:06:27.988Z,24.42
2018-08-20T15:08:20.944Z,24.50
2018-08-20T15:09:21.043Z,24.50
2018-08-20T15:11:13.878Z,24.60
2018-08-20T15:12:13.895Z,24.60
2018-08-20T15:14:06.848Z,24.80
2018-08-20T15:15:06.940Z,24.76
2018-08-20T15:16:59.788Z,24.76
2018-08-20T15:17:59.803Z,24.75
2018-08-20T15:19:52.772Z,24.76
2018-08-20T15:20:52.770Z,24.77
2018-08-20T15:22:45.703Z,24.94
2018-08-20T15:23:45.722Z,24.91
2018-08-20T15:25:38.672Z,24.97
2018-08-20T15:26:38.670Z,24.95
2018-08-20T15:28:31.627Z,25.02
2018-08-20T15:29:31.621Z,25.05
2018-08-20T15:31:24.555Z,24.90
2018-08-20T15:32:24.580Z,25.02
2018-08-20T15:34:17.532Z,24.97
2018-08-20T15:35:17.527Z,25.00
2018-08-20T15:37:10.466Z,25.05
2018-08-20T15:38:10.486Z,24.94
2018-08-20T15:40:03.435Z,24.90
2018-08-20T15:41:03.435Z,24.91
2018-08-20T15:42:56.370Z,24.90
2018-08-20T15:43:56.389Z,24.73
2018-08-20T15:45:49.340Z,24.83
2018-08-20T15:46:49.339Z,24.73
2018-08-20T15:48:42.300Z,24.82
2018-08-20T15:49:42.298Z,24.77
2018-08-20T15:51:35.231Z,24.68
2018-08-20T15:52:35.249Z,24.64
2018-08-20T15:54:28.202Z,24.71
2018-08-20T15:55:28.202Z,24.76
2018-08-20T15:57:21.133Z,24.87
2018-08-20T15:58:21.152Z,24.87
2018-08-20T16:00:14.112Z,24.83
2018-08-20T16:01:14.108Z,24.85
2018-08-20T16:03:07.044Z,24.87
2018-08-20T16:04:07.055Z,24.92
2018-08-20T16:06:00.013Z,24.91
2018-08-20T16:07:00.009Z,24.77
2018-08-20T16:08:52.962Z,24.80
2018-08-20T16:09:52.958Z,24.73
2018-08-20T16:11:45.904Z,24.69
2018-08-20T16:12:45.911Z,24.64
2018-08-20T16:14:38.870Z,24.75
2018-08-20T16:15:38.861Z,24.67
2018-08-20T16:17:31.803Z,24.63
2018-08-20T16:18:31.820Z,24.64
2018-08-20T16:20:24.788Z,24.63
2018-08-20T16:21:24.788Z,24.56
2018-08-20T16:23:17.720Z,24.56
2018-08-20T16:24:17.737Z,24.54
2018-08-20T16:26:10.698Z,24.60
2018-08-20T16:27:10.693Z,24.56
2018-08-20T16:29:03.657Z,24.61
2018-08-20T16:30:03.662Z,24.68
2018-08-20T16:31:56.596Z,24.67
2018-08-20T16:32:56.616Z,24.64
2018-08-20T16:34:49.561Z,24.63
2018-08-20T16:35:49.561Z,24.60
2018-08-20T16:37:42.497Z,24.54
2018-08-20T16:38:42.513Z,24.56
2018-08-20T16:40:35.474Z,24.54
2018-08-20T16:41:35.470Z,24.54
2018-08-20T16:43:28.412Z,24.52
2018-08-20T16:44:28.427Z,24.44
2018-08-20T16:46:21.377Z,24.49
2018-08-20T16:47:21.376Z,24.54
2018-08-20T16:49:14.331Z,24.49
2018-08-20T16:50:14.327Z,24.47
2018-08-20T16:52:07.263Z,24.37
2018-08-20T16:53:07.279Z,24.37
2018-08-20T16:55:00.234Z,24.39
2018-08-20T16:56:00.235Z,24.45
2018-08-20T16:57:53.171Z,24.38
2018-08-20T16:58:53.191Z,24.34
2018-08-20T17:00:46.137Z,24.34
2018-08-20T17:01:46.136Z,24.23
2018-08-20T17:03:39.069Z,24.35
2018-08-20T17:04:39.100Z,24.38
2018-08-20T17:06:32.097Z,24.35
2018-08-20T17:07:32.040Z,24.41
2018-08-20T17:09:25.010Z,24.38
2018-08-20T17:10:24.991Z,24.34
2018-08-20T17:12:17.933Z,24.45
2018-08-20T17:13:17.944Z,24.37
2018-08-20T17:15:10.897Z,24.41
2018-08-20T17:16:10.901Z,24.39
2018-08-20T17:18:03.834Z,24.29
2018-08-20T17:19:03.849Z,24.32
2018-08-20T17:20:56.850Z,24.23
2018-08-20T17:21:56.808Z,24.26
2018-08-20T17:23:49.747Z,24.20
2018-08-20T17:24:49.754Z,24.19
2018-08-20T17:26:42.709Z,24.07
2018-08-20T17:27:42.708Z,24.08
2018-08-20T17:29:35.664Z,24.13
2018-08-20T17:30:35.661Z,24.01
2018-08-20T17:32:28.606Z,24.05
2018-08-20T17:33:28.619Z,23.95
2018-08-20T17:35:21.571Z,23.98
2018-08-20T17:36:21.565Z,23.98
2018-08-20T17:38:14.508Z,23.94
2018-08-20T17:39:14.522Z,23.90
2018-08-20T17:41:07.471Z,23.98
2018-08-20T17:42:07.472Z,23.89
2018-08-20T17:44:00.404Z,23.80
2018-08-20T17:45:00.422Z,23.79
2018-08-20T17:46:53.403Z,23.77
2018-08-20T17:47:53.390Z,23.71
2018-08-20T17:49:46.326Z,23.67
2018-08-20T17:50:46.325Z,23.65
2018-08-20T17:52:39.257Z,23.60
2018-08-20T17:53:39.279Z,23.61
2018-08-20T17:55:32.231Z,23.62
2018-08-20T17:56:32.230Z,23.58
2018-08-20T17:58:25.166Z,23.61
2018-08-20T17:59:25.182Z,23.57
2018-08-20T18:01:18.224Z,23.61
2018-08-20T18:02:18.129Z,23.57
2018-08-20T18:04:11.066Z,23.55
2018-08-20T18:05:11.082Z,23.46
2018-08-20T18:07:04.041Z,23.52
2018-08-20T18:08:04.034Z,23.47
2018-08-20T18:09:56.987Z,23.50
2018-08-20T18:10:56.987Z,23.52
2018-08-20T18:12:49.921Z,23.49
2018-08-20T18:13:49.938Z,23.49
2018-08-20T18:15:42.896Z,23.49
2018-08-20T18:16:42.891Z,23.53
2018-08-20T18:18:35.830Z,23.50
2018-08-20T18:19:35.841Z,23.58
2018-08-20T18:21:28.787Z,23.47
2018-08-20T18:22:28.789Z,23.42
2018-08-20T18:24:21.722Z,23.50
2018-08-20T18:25:21.739Z,23.49
2018-08-20T18:27:14.688Z,23.46
2018-08-20T18:28:14.686Z,23.39
2018-08-20T18:30:07.645Z,23.40
2018-08-20T18:31:07.636Z,23.43
2018-08-20T18:33:00.571Z,23.24
2018-08-20T18:34:00.591Z,23.24
2018-08-20T18:35:53.547Z,23.26
2018-08-20T18:36:53.550Z,23.17
2018-08-20T18:38:46.484Z,23.15
2018-08-20T18:39:46.491Z,23.14
2018-08-20T18:41:39.452Z,23.22
2018-08-20T18:42:39.443Z,23.17
2018-08-20T18:44:32.376Z,23.08
2018-08-20T18:45:32.396Z,23.07
2018-08-20T18:47:25.356Z,22.93
2018-08-20T18:48:25.350Z,22.96
2018-08-20T18:50:18.321Z,22.99
2018-08-20T18:51:18.317Z,23.02
2018-08-20T18:53:11.252Z,22.97
2018-08-20T18:54:11.320Z,23.02
2018-08-20T18:56:04.219Z,22.96
2018-08-20T18:57:04.216Z,23.02
2018-08-20T18:58:57.162Z,22.99
2018-08-20T18:59:57.173Z,22.94
2018-08-20T19:01:50.123Z,22.89